Time;durP1;ratioP1;P1;durP2;ratioP2;P2;SDS_P1;SDS_P2;PMS_P1;PMS_P2;Temp;Humidity;BMP_temperature;BMP_pressure;BME280_temperature;BME280_humidity;BME280_pressure;Samples;Min_cycle;Max_cycle;Signal;HPM_P1;HPM_P2
2021/10/15 00:00:28;;;;;;;;;;;;;;;19.96;56.63;101713.75;5089091;28;20377;-90
2021/10/15 00:02:55;;;;;;;;;;;;;;;19.86;57.86;101714.56;5090467;28;19927;-91
2021/10/15 00:05:20;;;;;;;;;;;;;;;19.37;59.20;101710.69;5091220;28;20010;-92
2021/10/15 00:07:45;;;;;;;;;;;;;;;20.06;57.31;101702.09;5074068;28;19921;-92
2021/10/15 00:10:11;;;;;;;;;;;;;;;19.85;58.37;101699.06;5090085;28;19922;-91
2021/10/15 00:12:36;;;;;;;;;;;;;;;19.91;58.26;101699.47;5090125;28;19993;-92
2021/10/15 00:15:02;;;;;;;;;;;;;;;20.53;55.70;101686.63;5090407;28;19921;-92
2021/10/15 00:17:27;;;;;;;;;;;;;;;20.80;54.78;101680.91;5089192;28;19927;-92
2021/10/15 00:19:53;;;;;;;;;;;;;;;20.22;56.79;101690.84;5088967;28;20372;-90
2021/10/15 00:22:18;;;;;;;;;;;;;;;20.19;56.13;101690.06;5089905;28;19926;-91
2021/10/15 00:24:43;;;;;;;;;;;;;;;20.00;56.51;101690.56;5089591;28;19943;-92
2021/10/15 00:27:09;;;;;;;;;;;;;;;20.89;54.41;101690.31;5073388;28;19956;-92
2021/10/15 00:29:34;;;;;;;;;;;;;;;19.77;58.00;101691.34;5090036;28;19926;-90
2021/10/15 00:31:59;;;;;;;;;;;;;;;20.06;58.10;101680.97;5090272;28;19924;-91
2021/10/15 00:34:25;;;;;;;;;;;;;;;19.71;59.11;101675.34;5088820;28;20010;-91
2021/10/15 00:36:50;;;;;;;;;;;;;;;19.86;57.85;101673.38;5088854;28;20384;-92
2021/10/15 00:39:15;;;;;;;;;;;;;;;20.14;57.18;101675.81;5088918;28;19916;-92
2021/10/15 00:41:43;;;;;;;;;;;;;;;19.39;59.16;101670.31;5089250;28;19955;-91
2021/10/15 00:44:10;;;;;;;;;;;;;;;19.91;57.37;101661.03;5089591;28;19921;-92
2021/10/15 00:46:36;;;;;;;;;;;;;;;19.75;57.50;101658.50;5089217;28;19919;-91
2021/10/15 00:49:03;;;;;;;;;;;;;;;19.48;58.25;101662.28;5089187;28;20357;-91
2021/10/15 00:51:29;;;;;;;;;;;;;;;20.31;57.05;101665.41;5088091;28;19923;-91
2021/10/15 00:53:54;;;;;;;;;;;;;;;20.10;57.67;101649.56;5071363;28;19932;-92
2021/10/15 00:56:20;;;;;;;;;;;;;;;19.92;57.38;101651.81;5088823;28;19950;-92
2021/10/15 00:58:45;;;;;;;;;;;;;;;20.36;55.82;101641.19;5088772;28;19965;-91
2021/10/15 01:01:10;;;;;;;;;;;;;;;19.83;56.96;101645.13;5088683;28;19922;-91
2021/10/15 01:03:36;;;;;;;;;;;;;;;19.75;57.98;101638.44;5090144;28;19927;-91
2021/10/15 01:06:02;;;;;;;;;;;;;;;19.86;57.73;101641.28;5089552;28;19916;-91
2021/10/15 01:08:28;;;;;;;;;;;;;;;20.67;55.61;101642.50;5107831;28;19924;-90
2021/10/15 01:10:54;;;;;;;;;;;;;;;20.13;56.54;101616.34;5088599;28;19917;-91
2021/10/15 01:13:20;;;;;;;;;;;;;;;20.54;56.62;101628.78;5088981;28;19966;-93
2021/10/15 01:15:45;;;;;;;;;;;;;;;20.11;57.43;101620.19;5089505;28;19920;-92
2021/10/15 01:18:11;;;;;;;;;;;;;;;19.54;59.13;101610.69;5089565;28;19919;-91
2021/10/15 01:20:36;;;;;;;;;;;;;;;20.10;56.89;101626.72;5089603;28;19916;-92
2021/10/15 01:23:02;;;;;;;;;;;;;;;19.94;58.13;101605.91;5089729;28;19923;-90
2021/10/15 01:25:32;;;;;;;;;;;;;;;20.48;56.92;101612.75;5091149;28;20395;-89
2021/10/15 01:27:57;;;;;;;;;;;;;;;21.09;54.46;101608.09;5090949;28;19920;-88
2021/10/15 01:30:22;;;;;;;;;;;;;;;20.24;56.78;101612.78;5089218;28;19964;-89
2021/10/15 01:32:48;;;;;;;;;;;;;;;20.44;56.07;101614.00;5090864;28;19916;-90
2021/10/15 01:35:13;;;;;;;;;;;;;;;20.92;54.54;101607.56;5073374;28;19928;-90
2021/10/15 01:37:38;;;;;;;;;;;;;;;19.72;58.79;101606.59;5089875;28;20009;-91
2021/10/15 01:40:04;;;;;;;;;;;;;;;20.71;54.93;101600.03;5089146;28;19931;-91
2021/10/15 01:45:13;;;;;;;;;;;;;;;21.09;53.85;101597.97;5106136;28;19942;-91
2021/10/15 01:47:38;;;;;;;;;;;;;;;20.48;56.05;101585.28;5088379;28;19916;-91
2021/10/15 01:50:04;;;;;;;;;;;;;;;20.64;54.95;101584.09;5088309;28;20019;-90
2021/10/15 01:52:30;;;;;;;;;;;;;;;20.15;56.70;101586.88;5071503;28;19967;-92
2021/10/15 01:54:55;;;;;;;;;;;;;;;20.43;56.22;101589.41;5088200;28;19916;-91
2021/10/15 01:57:20;;;;;;;;;;;;;;;20.30;57.21;101581.22;5088190;28;20007;-91
2021/10/15 01:59:45;;;;;;;;;;;;;;;19.81;56.68;101578.47;5088389;28;20011;-91
2021/10/15 02:02:11;;;;;;;;;;;;;;;20.26;56.46;101583.34;5087962;28;20270;-92
2021/10/15 02:04:36;;;;;;;;;;;;;;;21.55;53.12;101571.34;5088472;28;20019;-90
2021/10/15 02:07:01;;;;;;;;;;;;;;;21.18;52.49;101579.81;5087761;28;19916;-91
2021/10/15 02:09:26;;;;;;;;;;;;;;;20.92;54.31;101573.69;5088777;28;19926;-91
2021/10/15 02:11:52;;;;;;;;;;;;;;;19.83;57.77;101570.97;5088469;28;20357;-91
2021/10/15 02:14:17;;;;;;;;;;;;;;;20.63;55.57;101563.09;5072194;28;19941;-92
2021/10/15 02:16:42;;;;;;;;;;;;;;;20.15;56.64;101561.28;5088561;28;19970;-90
2021/10/15 02:19:08;;;;;;;;;;;;;;;20.08;57.44;101552.66;5088425;28;20014;-92
2021/10/15 02:21:33;;;;;;;;;;;;;;;21.29;52.61;101544.06;5088532;28;20296;-90
2021/10/15 02:23:58;;;;;;;;;;;;;;;21.25;53.53;101545.31;5087972;28;19926;-91
2021/10/15 02:26:24;;;;;;;;;;;;;;;20.69;54.18;101546.13;5089195;28;19924;-91
2021/10/15 02:28:50;;;;;;;;;;;;;;;21.59;52.16;101545.31;5088920;28;19904;-91
2021/10/15 02:31:15;;;;;;;;;;;;;;;20.65;55.01;101544.59;5087790;28;19924;-91
2021/10/15 02:33:41;;;;;;;;;;;;;;;21.10;53.10;101539.19;5086990;28;19927;-91
2021/10/15 02:36:06;;;;;;;;;;;;;;;20.53;56.18;101541.81;5087952;28;19916;-92
2021/10/15 02:38:31;;;;;;;;;;;;;;;21.47;52.32;101544.44;5087718;28;19988;-92
2021/10/15 02:40:57;;;;;;;;;;;;;;;20.17;56.87;101549.19;5070373;28;20385;-92
2021/10/15 02:43:22;;;;;;;;;;;;;;;20.87;54.29;101547.41;5105562;28;19961;-93
2021/10/15 02:45:47;;;;;;;;;;;;;;;19.72;57.73;101540.69;5087721;28;19900;-92
2021/10/15 02:48:13;;;;;;;;;;;;;;;20.11;55.59;101526.81;5088101;28;19965;-92
2021/10/15 02:50:39;;;;;;;;;;;;;;;21.12;52.33;101523.44;5087014;28;19923;-93
2021/10/15 02:53:04;;;;;;;;;;;;;;;21.67;49.82;101518.00;5087139;28;19916;-92
2021/10/15 02:55:30;;;;;;;;;;;;;;;21.75;49.42;101525.63;5087403;28;19916;-91
2021/10/15 02:57:56;;;;;;;;;;;;;;;20.22;52.39;101521.38;5087111;28;20464;-90
2021/10/15 03:00:22;;;;;;;;;;;;;;;20.63;51.26;101511.72;5106381;28;19920;-91
2021/10/15 03:02:47;;;;;;;;;;;;;;;20.42;51.65;101518.94;5088073;28;19917;-91
2021/10/15 03:05:12;;;;;;;;;;;;;;;21.06;50.51;101521.16;5088228;28;20395;-90
2021/10/15 03:07:38;;;;;;;;;;;;;;;21.82;48.53;101504.81;5086787;28;19916;-91
2021/10/15 03:10:05;;;;;;;;;;;;;;;20.57;51.52;101511.34;5070911;28;19920;-92
2021/10/15 03:12:31;;;;;;;;;;;;;;;20.68;51.72;101506.78;5087136;28;19916;-91
2021/10/15 03:14:56;;;;;;;;;;;;;;;20.61;52.00;101510.97;5087028;28;19920;-93
2021/10/15 03:17:21;;;;;;;;;;;;;;;19.73;53.58;101516.84;5087623;28;19916;-92
2021/10/15 03:19:46;;;;;;;;;;;;;;;20.64;52.10;101509.88;5088017;28;19947;-91
2021/10/15 03:22:12;;;;;;;;;;;;;;;20.13;52.90;101509.22;5087400;28;19904;-93
2021/10/15 03:24:37;;;;;;;;;;;;;;;21.04;50.38;101495.66;5070982;28;19983;-93
2021/10/15 03:27:02;;;;;;;;;;;;;;;20.95;50.94;101504.66;5088005;28;19946;-91
2021/10/15 03:29:28;;;;;;;;;;;;;;;20.33;52.62;101485.66;5088094;28;20349;-91
2021/10/15 03:31:53;;;;;;;;;;;;;;;20.63;52.07;101489.72;5089050;28;19997;-91
2021/10/15 03:34:21;;;;;;;;;;;;;;;20.73;50.93;101491.75;5089380;28;19900;-92
2021/10/15 03:36:46;;;;;;;;;;;;;;;20.73;51.59;101492.66;5089833;28;19920;-91
2021/10/15 03:39:12;;;;;;;;;;;;;;;20.47;51.60;101498.34;5089204;28;19942;-92
2021/10/15 03:41:38;;;;;;;;;;;;;;;20.68;51.22;101500.38;5089165;28;19963;-91
2021/10/15 03:44:04;;;;;;;;;;;;;;;20.85;50.48;101501.81;5090105;28;20457;-91
2021/10/15 03:46:29;;;;;;;;;;;;;;;20.78;50.86;101500.53;5089612;28;19916;-91
2021/10/15 03:48:58;;;;;;;;;;;;;;;20.49;51.15;101506.47;5107629;28;19924;-92
2021/10/15 03:51:23;;;;;;;;;;;;;;;20.47;51.21;101501.09;5089651;28;19900;-91
2021/10/15 03:53:48;;;;;;;;;;;;;;;20.53;50.92;101507.94;5089518;28;19939;-91
2021/10/15 03:56:14;;;;;;;;;;;;;;;20.77;50.62;101493.28;5092438;28;19923;-93
2021/10/15 03:58:39;;;;;;;;;;;;;;;20.22;51.91;101499.38;5091536;28;19916;-92
2021/10/15 04:01:04;;;;;;;;;;;;;;;20.79;50.42;101491.28;5091884;28;19926;-93
2021/10/15 04:03:30;;;;;;;;;;;;;;;20.81;50.64;101503.03;5073766;28;19943;-91
2021/10/15 04:05:56;;;;;;;;;;;;;;;20.57;51.12;101503.97;5090542;28;19979;-92
2021/10/15 04:08:22;;;;;;;;;;;;;;;21.23;49.55;101506.91;5090877;28;19920;-91
2021/10/15 04:10:47;;;;;;;;;;;;;;;20.70;50.72;101501.16;5109435;28;20266;-93
2021/10/15 04:13:14;;;;;;;;;;;;;;;20.59;50.96;101501.09;5090765;28;20015;-92
2021/10/15 04:15:40;;;;;;;;;;;;;;;21.05;49.36;101497.41;5090881;28;19967;-91
2021/10/15 04:18:06;;;;;;;;;;;;;;;20.37;50.73;101497.31;5090689;28;19927;-92
2021/10/15 04:20:31;;;;;;;;;;;;;;;19.92;52.39;101486.16;5090272;28;19916;-91
2021/10/15 04:22:56;;;;;;;;;;;;;;;20.11;52.14;101488.34;5090221;28;19916;-90
2021/10/15 04:25:22;;;;;;;;;;;;;;;20.58;51.09;101483.72;5090830;28;19927;-91
2021/10/15 04:27:47;;;;;;;;;;;;;;;20.55;50.97;101492.22;5092126;28;20383;-92
2021/10/15 04:30:12;;;;;;;;;;;;;;;20.86;49.87;101482.44;5091316;28;19920;-93
2021/10/15 04:32:38;;;;;;;;;;;;;;;20.23;52.04;101478.28;5092306;28;19922;-92
2021/10/15 04:35:03;;;;;;;;;;;;;;;20.12;52.23;101484.59;5092149;28;19923;-92
2021/10/15 04:37:30;;;;;;;;;;;;;;;21.13;50.12;101489.41;5091668;28;19962;-92
2021/10/15 04:39:55;;;;;;;;;;;;;;;20.76;50.61;101486.91;5091442;28;19919;-91
2021/10/15 04:42:20;;;;;;;;;;;;;;;20.67;50.60;101482.16;5091533;28;20058;-90
2021/10/15 04:44:46;;;;;;;;;;;;;;;20.49;50.84;101477.09;5091216;28;19923;-90
2021/10/15 04:47:11;;;;;;;;;;;;;;;19.62;53.72;101482.84;5090585;28;19923;-90
2021/10/15 04:49:37;;;;;;;;;;;;;;;21.01;49.74;101490.41;5110377;28;19907;-91
2021/10/15 04:52:03;;;;;;;;;;;;;;;21.11;49.02;101491.41;5093228;28;19937;-89
2021/10/15 04:54:28;;;;;;;;;;;;;;;20.50;51.09;101486.19;5091240;28;19911;-90
2021/10/15 04:56:53;;;;;;;;;;;;;;;20.51;51.02;101487.97;5109480;28;19931;-91
2021/10/15 04:59:19;;;;;;;;;;;;;;;20.64;50.30;101488.75;5091511;28;20354;-91
2021/10/15 05:01:44;;;;;;;;;;;;;;;20.78;50.66;101486.78;5089761;28;19920;-91
2021/10/15 05:04:13;;;;;;;;;;;;;;;19.78;52.64;101493.59;5087843;28;20099;-87
2021/10/15 05:06:38;;;;;;;;;;;;;;;20.24;52.32;101488.28;5088422;28;19916;-90
2021/10/15 05:11:32;;;;;;;;;;;;;;;20.54;51.36;101474.84;5105732;28;19927;-89
2021/10/15 05:13:57;;;;;;;;;;;;;;;20.34;51.82;101473.69;5087157;28;20003;-89
2021/10/15 05:16:23;;;;;;;;;;;;;;;20.32;51.93;101477.53;5087404;28;19908;-90
2021/10/15 05:18:48;;;;;;;;;;;;;;;21.14;50.00;101477.41;5087786;28;20002;-90
2021/10/15 05:21:13;;;;;;;;;;;;;;;21.03;49.77;101477.41;5087515;28;20013;-88
2021/10/15 05:23:46;;;;;;;;;;;;;;;21.12;49.85;101471.16;5086077;28;20281;-91
2021/10/15 05:26:11;;;;;;;;;;;;;;;20.69;50.92;101477.41;5085080;28;19916;-90
2021/10/15 05:28:36;;;;;;;;;;;;;;;20.00;52.64;101483.69;5089884;28;19938;-90
2021/10/15 05:31:02;;;;;;;;;;;;;;;20.75;50.46;101479.66;5084509;28;20458;-89
2021/10/15 05:33:27;;;;;;;;;;;;;;;21.02;49.90;101482.03;5084144;28;19923;-89
2021/10/15 05:35:52;;;;;;;;;;;;;;;19.51;56.31;101487.44;5084538;28;19916;-89
2021/10/15 05:38:17;;;;;;;;;;;;;;;19.02;61.97;101508.38;5083330;28;19922;-88
2021/10/15 05:40:43;;;;;;;;;;;;;;;18.73;64.00;101509.44;5083864;28;19941;-85
2021/10/15 05:43:10;;;;;;;;;;;;;;;18.47;64.01;101510.44;5084403;28;19911;-88
2021/10/15 05:45:35;;;;;;;;;;;;;;;19.33;61.59;101501.53;5084494;28;19924;-85
2021/10/15 05:48:01;;;;;;;;;;;;;;;18.76;63.60;101502.88;5082536;28;19939;-84
2021/10/15 05:50:28;;;;;;;;;;;;;;;18.99;63.37;101511.34;5082257;28;19916;-89
2021/10/15 05:52:54;;;;;;;;;;;;;;;18.73;63.27;101498.50;5082676;28;19916;-90
2021/10/15 05:55:41;;;;;;;;;;;;;;;18.99;63.20;101508.59;5083801;28;20388;-88
2021/10/15 06:00:50;;;;;;;;;;;;;;;19.45;61.86;101522.56;5100947;28;20334;-88
2021/10/15 06:03:18;;;;;;;;;;;;;;;18.69;64.23;101521.66;5082512;28;19955;-90
2021/10/15 06:14:18;;;;;;;;;;;;;;;18.84;63.37;101559.91;5099542;28;19977;-87
2021/10/15 06:19:44;;;;;;;;;;;;;;;19.55;59.55;101554.78;5098159;28;19920;-89
2021/10/15 06:22:10;;;;;;;;;;;;;;;19.86;57.97;101566.28;5082398;28;19930;-85
2021/10/15 06:24:35;;;;;;;;;;;;;;;20.16;55.86;101572.16;5081296;28;19923;-87
2021/10/15 06:27:00;;;;;;;;;;;;;;;20.27;55.57;101579.56;5100138;28;19931;-87
2021/10/15 06:29:25;;;;;;;;;;;;;;;19.64;57.87;101570.56;5082270;28;19994;-88
2021/10/15 06:31:51;;;;;;;;;;;;;;;19.78;56.44;101580.59;5081904;28;19916;-86
2021/10/15 06:34:18;;;;;;;;;;;;;;;19.91;56.92;101586.88;5081133;28;19923;-88
2021/10/15 06:36:43;;;;;;;;;;;;;;;20.31;55.70;101596.72;5100084;28;19918;-86
2021/10/15 06:39:09;;;;;;;;;;;;;;;20.82;53.81;101604.66;5081686;28;20347;-85
2021/10/15 06:41:34;;;;;;;;;;;;;;;20.41;54.41;101611.50;5080770;28;20296;-82
2021/10/15 06:44:00;;;;;;;;;;;;;;;20.08;55.82;101621.34;5079858;28;19923;-86
2021/10/15 06:46:25;;;;;;;;;;;;;;;19.80;56.55;101637.09;5098418;28;19916;-84
2021/10/15 06:48:50;;;;;;;;;;;;;;;19.90;56.78;101629.09;5097701;28;19990;-85
2021/10/15 06:51:15;;;;;;;;;;;;;;;19.61;56.76;101639.44;5080216;28;19923;-85
2021/10/15 06:53:42;;;;;;;;;;;;;;;20.10;55.87;101643.19;5078856;28;19904;-84
2021/10/15 06:56:07;;;;;;;;;;;;;;;20.26;53.98;101640.13;5066066;28;20336;-86
2021/10/15 06:58:34;;;;;;;;;;;;;;;19.51;56.45;101643.84;5059647;28;19917;-85
2021/10/15 07:01:02;;;;;;;;;;;;;;;19.57;56.35;101646.16;5078511;28;19923;-83
2021/10/15 07:03:28;;;;;;;;;;;;;;;19.14;56.66;101644.63;5076779;28;19916;-85
2021/10/15 07:05:53;;;;;;;;;;;;;;;19.94;54.50;101662.66;5098179;28;20421;-84
2021/10/15 07:08:18;;;;;;;;;;;;;;;19.38;56.01;101674.03;5080916;28;19916;-86
2021/10/15 07:10:43;;;;;;;;;;;;;;;19.92;54.13;101665.53;5080431;28;19916;-83
2021/10/15 07:13:12;;;;;;;;;;;;;;;20.41;52.78;101658.22;5099223;28;19916;-84
2021/10/15 07:15:37;;;;;;;;;;;;;;;20.24;53.51;101666.88;5080077;28;19923;-84
2021/10/15 07:18:03;;;;;;;;;;;;;;;20.27;51.90;101673.00;5097180;28;19916;-86
2021/10/15 07:20:29;;;;;;;;;;;;;;;20.33;52.61;101672.53;5080197;28;19916;-86
2021/10/15 07:22:54;;;;;;;;;;;;;;;19.97;53.11;101684.41;5080761;28;19920;-85
2021/10/15 07:25:20;;;;;;;;;;;;;;;20.08;52.28;101684.50;5079516;28;19970;-86
2021/10/15 07:27:45;;;;;;;;;;;;;;;19.68;53.73;101686.53;5098162;28;20004;-86
2021/10/15 07:30:10;;;;;;;;;;;;;;;19.26;54.76;101686.75;5100284;28;19927;-83
2021/10/15 07:32:35;;;;;;;;;;;;;;;19.52;53.40;101690.41;5101506;28;19923;-88
2021/10/15 07:35:02;;;;;;;;;;;;;;;19.88;52.80;101696.94;5083963;28;20429;-88
2021/10/15 07:37:27;;;;;;;;;;;;;;;19.42;53.22;101698.41;5101488;28;19916;-87
2021/10/15 07:39:52;;;;;;;;;;;;;;;19.83;52.30;101705.53;5102066;28;19926;-86
2021/10/15 07:42:18;;;;;;;;;;;;;;;19.65;52.29;101715.06;5100991;28;19984;-85
2021/10/15 07:44:43;;;;;;;;;;;;;;;20.11;50.64;101711.75;5082829;28;19916;-87
2021/10/15 07:47:08;;;;;;;;;;;;;;;20.57;50.11;101720.28;5082422;28;19916;-85
2021/10/15 07:49:33;;;;;;;;;;;;;;;20.21;50.82;101724.81;5082955;28;19923;-88
2021/10/15 07:51:59;;;;;;;;;;;;;;;20.01;51.02;101729.91;5082939;28;19942;-88
2021/10/15 07:54:24;;;;;;;;;;;;;;;19.54;52.16;101737.81;5083816;28;19916;-89
2021/10/15 07:56:49;;;;;;;;;;;;;;;19.68;51.73;101735.94;5083183;28;20388;-85
2021/10/15 07:59:14;;;;;;;;;;;;;;;19.52;52.94;101741.66;5100358;28;20392;-85
2021/10/15 08:01:40;;;;;;;;;;;;;;;19.54;52.28;101747.94;5101155;28;19916;-83
2021/10/15 08:04:05;;;;;;;;;;;;;;;19.71;51.71;101749.47;5099564;28;20289;-82
2021/10/15 08:06:31;;;;;;;;;;;;;;;20.07;51.15;101748.66;5082064;28;20408;-85
2021/10/15 08:08:56;;;;;;;;;;;;;;;20.54;49.99;101757.13;5078415;28;19923;-85
2021/10/15 08:11:21;;;;;;;;;;;;;;;20.87;49.53;101759.19;5088404;28;20406;-83
2021/10/15 08:13:47;;;;;;;;;;;;;;;20.42;50.27;101764.41;5062089;28;19928;-84
2021/10/15 08:16:12;;;;;;;;;;;;;;;20.08;50.92;101760.53;5061579;28;19916;-86
2021/10/15 08:18:37;;;;;;;;;;;;;;;19.82;51.33;101769.69;5095281;28;20028;-87
2021/10/15 08:21:03;;;;;;;;;;;;;;;20.36;50.58;101773.13;5081864;28;19924;-82
2021/10/15 08:23:29;;;;;;;;;;;;;;;21.23;48.60;101778.50;5099798;28;19916;-84
2021/10/15 08:25:57;;;;;;;;;;;;;;;21.15;49.23;101772.69;5081784;28;19931;-82
2021/10/15 08:28:23;;;;;;;;;;;;;;;21.35;48.23;101776.66;5081844;28;19948;-84
2021/10/15 08:30:48;;;;;;;;;;;;;;;21.04;48.65;101788.16;5064207;28;19931;-83
2021/10/15 08:33:13;;;;;;;;;;;;;;;22.06;47.89;101787.56;5079155;28;20032;-81
2021/10/15 08:35:39;;;;;;;;;;;;;;;21.77;47.08;101777.88;5096161;28;19916;-84
2021/10/15 08:38:04;;;;;;;;;;;;;;;21.37;48.79;101792.03;5079000;28;19952;-82
2021/10/15 08:40:30;;;;;;;;;;;;;;;21.82;46.61;101793.19;5076868;28;20297;-82
2021/10/15 08:42:56;;;;;;;;;;;;;;;21.91;46.63;101797.94;5078365;28;20024;-84
2021/10/15 08:45:32;;;;;;;;;;;;;;;22.03;46.28;101802.44;5078478;28;20311;-83
2021/10/15 08:47:57;;;;;;;;;;;;;;;21.91;46.59;101804.31;5077516;28;19916;-84
2021/10/15 08:50:23;;;;;;;;;;;;;;;21.74;47.32;101813.03;5096911;28;20018;-84
2021/10/15 08:52:48;;;;;;;;;;;;;;;21.59;46.82;101817.91;5097572;28;20292;-84
2021/10/15 08:55:14;;;;;;;;;;;;;;;22.47;45.84;101817.25;5079869;28;19920;-83
2021/10/15 08:57:45;;;;;;;;;;;;;;;21.33;46.41;101822.66;5100943;28;19924;-84
2021/10/15 09:00:20;;;;;;;;;;;;;;;21.94;47.33;101831.63;5079226;28;20343;-84
2021/10/15 09:02:47;;;;;;;;;;;;;;;21.81;45.60;101830.84;5080649;28;19969;-84
2021/10/15 09:05:12;;;;;;;;;;;;;;;20.99;46.02;101831.66;5080066;28;19966;-84
2021/10/15 09:07:37;;;;;;;;;;;;;;;20.68;46.19;101833.97;5081728;28;19924;-83
2021/10/15 09:10:08;;;;;;;;;;;;;;;20.21;44.62;101842.94;5099414;28;19920;-84
2021/10/15 09:12:56;;;;;;;;;;;;;;;20.29;44.08;101848.75;5080337;28;20450;-83
2021/10/15 09:15:21;;;;;;;;;;;;;;;20.91;44.13;101846.97;5065482;28;19931;-82
2021/10/15 09:17:50;;;;;;;;;;;;;;;20.82;43.10;101843.03;5081305;28;19916;-85
2021/10/15 09:20:29;;;;;;;;;;;;;;;20.81;43.17;101844.94;5080893;28;19916;-84
2021/10/15 09:22:54;;;;;;;;;;;;;;;21.28;42.13;101844.19;5090848;28;19920;-84
2021/10/15 09:25:19;;;;;;;;;;;;;;;20.65;42.11;101842.47;5079017;28;19924;-83
2021/10/15 09:27:46;;;;;;;;;;;;;;;20.66;41.28;101846.09;5079909;28;20015;-84
2021/10/15 09:30:22;;;;;;;;;;;;;;;20.82;42.04;101843.94;5078583;28;19931;-83
2021/10/15 09:32:48;;;;;;;;;;;;;;;20.80;42.24;101848.66;5080245;28;19916;-84
2021/10/15 09:35:18;;;;;;;;;;;;;;;20.89;40.68;101848.00;5080369;28;19923;-83
2021/10/15 09:37:44;;;;;;;;;;;;;;;21.04;40.85;101859.69;5078705;28;19952;-85
2021/10/15 09:40:11;;;;;;;;;;;;;;;20.62;41.11;101861.00;5080862;28;19963;-83
2021/10/15 09:42:38;;;;;;;;;;;;;;;20.99;41.17;101867.41;5098684;28;19916;-83
2021/10/15 09:45:12;;;;;;;;;;;;;;;20.96;40.62;101867.66;5099546;28;19916;-85
2021/10/15 09:47:37;;;;;;;;;;;;;;;21.28;39.86;101866.19;5081754;28;19916;-82
2021/10/15 09:50:04;;;;;;;;;;;;;;;22.26;39.12;101869.47;5082601;28;19923;-85
2021/10/15 09:52:36;;;;;;;;;;;;;;;22.06;41.07;101872.97;5080631;28;19916;-86
2021/10/15 09:55:06;;;;;;;;;;;;;;;22.34;38.15;101873.53;5081147;28;19922;-85
2021/10/15 09:57:36;;;;;;;;;;;;;;;21.31;38.46;101876.97;5080677;28;19924;-82
2021/10/15 10:00:06;;;;;;;;;;;;;;;21.67;38.86;101878.75;5097864;28;19938;-82
2021/10/15 10:02:33;;;;;;;;;;;;;;;22.67;37.81;101883.66;5080459;28;19916;-83
2021/10/15 10:04:58;;;;;;;;;;;;;;;22.91;37.54;101883.50;5081613;28;19961;-82
2021/10/15 10:07:24;;;;;;;;;;;;;;;22.64;38.77;101890.31;5079886;28;19993;-82
2021/10/15 10:09:50;;;;;;;;;;;;;;;23.10;37.22;101890.25;5081118;28;19916;-82
2021/10/15 10:12:15;;;;;;;;;;;;;;;22.77;38.53;101890.19;5080714;28;19917;-82
2021/10/15 10:14:40;;;;;;;;;;;;;;;23.24;36.87;101886.34;5098546;28;19993;-83
2021/10/15 10:17:12;;;;;;;;;;;;;;;23.52;37.69;101890.38;5099766;28;19903;-84
2021/10/15 10:19:39;;;;;;;;;;;;;;;23.17;37.31;101891.50;5100042;28;20277;-86
2021/10/15 10:22:05;;;;;;;;;;;;;;;22.88;37.95;101885.66;5099758;28;20371;-86
2021/10/15 10:24:33;;;;;;;;;;;;;;;23.22;36.97;101889.25;5097631;28;19917;-85
2021/10/15 10:26:59;;;;;;;;;;;;;;;22.85;37.45;101906.09;5100409;28;19931;-85
2021/10/15 10:29:25;;;;;;;;;;;;;;;22.11;38.59;101907.41;5082291;28;19952;-85
2021/10/15 10:31:53;;;;;;;;;;;;;;;21.88;38.69;101912.00;5099614;28;19977;-85
2021/10/15 10:34:26;;;;;;;;;;;;;;;22.27;38.66;101908.97;5081376;28;19916;-87
2021/10/15 10:37:08;;;;;;;;;;;;;;;22.92;37.70;101904.59;5099816;28;19916;-85
2021/10/15 10:39:35;;;;;;;;;;;;;;;23.38;36.54;101898.97;5083143;28;19931;-85
2021/10/15 10:42:08;;;;;;;;;;;;;;;22.53;39.20;101914.28;5083806;28;19942;-87
2021/10/15 10:44:36;;;;;;;;;;;;;;;22.28;38.34;101919.88;5082546;28;19916;-87
2021/10/15 10:47:12;;;;;;;;;;;;;;;21.91;38.52;101919.16;5079675;28;20331;-86
2021/10/15 10:49:37;;;;;;;;;;;;;;;21.63;39.51;101926.81;5080408;28;20003;-85
2021/10/15 10:52:13;;;;;;;;;;;;;;;21.80;39.08;101932.88;5081624;28;19956;-87
2021/10/15 10:54:43;;;;;;;;;;;;;;;22.43;39.11;101931.53;5079962;28;19939;-86
2021/10/15 10:57:24;;;;;;;;;;;;;;;22.37;38.92;101926.53;5081930;28;19924;-86
2021/10/15 10:59:51;;;;;;;;;;;;;;;22.68;37.61;101931.44;5081677;28;19916;-86
2021/10/15 11:02:19;;;;;;;;;;;;;;;22.21;38.14;101940.66;5099597;28;19916;-85
2021/10/15 11:04:44;;;;;;;;;;;;;;;23.14;36.21;101935.94;5082740;28;19904;-83
2021/10/15 11:07:21;;;;;;;;;;;;;;;23.20;35.60;101943.69;5100266;28;19920;-83
2021/10/15 11:09:48;;;;;;;;;;;;;;;23.58;35.72;101945.06;5098927;28;19927;-84
2021/10/15 11:12:14;;;;;;;;;;;;;;;23.30;34.14;101958.47;5080957;28;20407;-81
2021/10/15 11:14:55;;;;;;;;;;;;;;;23.11;34.59;101952.75;5080109;28;19965;-84
2021/10/15 11:17:29;;;;;;;;;;;;;;;23.78;32.50;101953.53;5080551;28;19956;-83
2021/10/15 11:20:13;;;;;;;;;;;;;;;24.61;32.30;101954.63;5081027;28;19916;-84
2021/10/15 11:22:39;;;;;;;;;;;;;;;24.12;33.62;101956.19;5082256;28;19955;-80
2021/10/15 11:25:05;;;;;;;;;;;;;;;24.50;32.68;101963.81;5083864;28;20392;-89
2021/10/15 11:27:31;;;;;;;;;;;;;;;24.54;33.36;101969.97;5102051;28;20418;-85
2021/10/15 11:29:57;;;;;;;;;;;;;;;23.88;32.74;101971.13;5102548;28;19920;-84
2021/10/15 11:32:34;;;;;;;;;;;;;;;24.01;33.44;101973.72;5084314;28;19939;-86
2021/10/15 11:35:07;;;;;;;;;;;;;;;24.66;31.34;101979.97;5083637;28;19916;-88
2021/10/15 11:37:59;;;;;;;;;;;;;;;24.58;31.64;101975.13;5103093;28;19946;-86
2021/10/15 11:40:51;;;;;;;;;;;;;;;24.44;32.53;101972.66;5081291;28;19916;-87
2021/10/15 11:43:22;;;;;;;;;;;;;;;23.12;34.13;101985.75;5099353;28;20040;-90
2021/10/15 11:45:49;;;;;;;;;;;;;;;23.53;34.78;101988.81;5103627;28;20413;-87
2021/10/15 11:48:25;;;;;;;;;;;;;;;22.90;35.58;101992.13;5086324;28;19951;-87
2021/10/15 11:51:00;;;;;;;;;;;;;;;23.07;35.27;101989.84;5102378;28;20319;-86
2021/10/15 11:53:30;;;;;;;;;;;;;;;23.69;33.86;101999.44;5102098;28;20014;-84
2021/10/15 11:55:55;;;;;;;;;;;;;;;24.25;33.88;101990.03;5103819;28;19924;-86
2021/10/15 11:58:23;;;;;;;;;;;;;;;24.55;33.38;101983.66;5086157;28;19939;-86
2021/10/15 12:00:53;;;;;;;;;;;;;;;24.79;33.11;101990.81;5084399;28;19912;-88
2021/10/15 12:03:25;;;;;;;;;;;;;;;23.25;33.61;101995.75;5084441;28;19941;-86
2021/10/15 12:05:50;;;;;;;;;;;;;;;23.01;34.04;101999.53;5083255;28;19916;-85
2021/10/15 12:08:15;;;;;;;;;;;;;;;23.32;34.05;101995.13;5083192;28;19927;-85
2021/10/15 12:10:41;;;;;;;;;;;;;;;22.70;34.46;102006.69;5101963;28;19999;-88
2021/10/15 12:13:08;;;;;;;;;;;;;;;22.54;35.52;102004.25;5084923;28;19934;-87
2021/10/15 12:15:34;;;;;;;;;;;;;;;22.40;34.41;102014.50;5069320;28;19920;-86
2021/10/15 12:18:07;;;;;;;;;;;;;;;23.12;34.26;102015.25;5084881;28;19916;-87
2021/10/15 12:20:32;;;;;;;;;;;;;;;22.76;34.42;102014.47;5085330;28;19924;-91
2021/10/15 12:23:06;;;;;;;;;;;;;;;23.35;33.32;102016.09;5104540;28;19967;-89
2021/10/15 12:25:31;;;;;;;;;;;;;;;22.94;33.03;102021.22;5103787;28;19924;-87
2021/10/15 12:27:57;;;;;;;;;;;;;;;22.51;33.15;102024.72;5085188;28;20028;-86
2021/10/15 12:30:25;;;;;;;;;;;;;;;22.44;33.79;102020.69;5080022;28;19927;-85
2021/10/15 12:32:50;;;;;;;;;;;;;;;22.86;33.27;102018.22;5080645;28;19901;-85
2021/10/15 12:35:16;;;;;;;;;;;;;;;22.70;32.97;102020.47;5079736;28;20373;-84
2021/10/15 12:37:58;;;;;;;;;;;;;;;22.52;32.55;102025.59;5078769;28;19916;-85
2021/10/15 12:40:26;;;;;;;;;;;;;;;22.63;32.76;102029.25;5074575;28;19989;-85
2021/10/15 12:42:54;;;;;;;;;;;;;;;22.51;33.42;102032.09;5078544;28;19924;-85
2021/10/15 12:45:20;;;;;;;;;;;;;;;22.60;33.32;102032.25;5079841;28;19956;-85
2021/10/15 12:47:56;;;;;;;;;;;;;;;23.56;32.81;102027.22;5078905;28;19923;-86
2021/10/15 12:50:22;;;;;;;;;;;;;;;22.98;32.55;102036.53;5082065;28;19976;-84
2021/10/15 12:52:47;;;;;;;;;;;;;;;23.12;31.82;102034.56;5080652;28;19959;-84